Time;durP1;ratioP1;P1;durP2;ratioP2;P2;SDS_P1;SDS_P2;PMS_P1;PMS_P2;Temp;Humidity;BMP_temperature;BMP_pressure;BME280_temperature;BME280_humidity;BME280_pressure;Samples;Min_cycle;Max_cycle;Signal;HPM_P1;HPM_P2
2022/09/12 00:00:51;;;;;;;4.25;3.35;;;;;;;12.91;93.95;93881.97;1705293;83;20990;-51
2022/09/12 00:03:19;;;;;;;3.62;2.60;;;;;;;12.97;93.95;93884.20;1688147;83;21267;-52
2022/09/12 00:05:46;;;;;;;3.50;2.80;;;;;;;13.03;93.94;93887.78;1696409;83;21014;-51
2022/09/12 00:08:14;;;;;;;3.33;3.02;;;;;;;13.05;93.81;93882.56;1701637;83;21006;-52
2022/09/12 00:10:43;;;;;;;3.60;3.30;;;;;;;13.02;93.72;93884.28;1696674;83;21049;-52
2022/09/12 00:13:10;;;;;;;3.87;2.47;;;;;;;12.96;93.62;93879.31;1705718;83;20967;-51
2022/09/12 00:15:39;;;;;;;4.78;2.75;;;;;;;12.97;94.26;93873.16;1709021;83;21258;-51
2022/09/12 00:18:07;;;;;;;3.17;2.95;;;;;;;13.04;94.55;93874.14;1666276;85;21011;-52
2022/09/12 00:20:35;;;;;;;5.85;3.33;;;;;;;13.11;94.54;93872.33;1634296;86;21597;-52
2022/09/12 00:23:03;;;;;;;8.43;3.33;;;;;;;13.10;94.15;93868.80;1664479;83;21056;-52
2022/09/12 00:25:30;;;;;;;7.33;3.85;;;;;;;13.07;93.98;93877.31;1698199;83;20974;-52
2022/09/12 00:27:56;;;;;;;7.12;3.85;;;;;;;13.01;94.28;93877.84;1703460;83;21306;-53
2022/09/12 00:30:24;;;;;;;4.80;4.00;;;;;;;13.01;94.17;93875.09;1704538;83;20991;-52
2022/09/12 00:32:53;;;;;;;5.92;3.80;;;;;;;12.98;94.07;93871.31;1701391;83;21112;-53
2022/09/12 00:35:19;;;;;;;6.60;3.80;;;;;;;13.01;94.55;93877.23;1696573;83;21132;-55
2022/09/12 00:37:46;;;;;;;5.58;3.55;;;;;;;13.07;94.66;93871.78;1694516;83;21325;-52
2022/09/12 00:40:13;;;;;;;11.55;3.70;;;;;;;13.07;94.44;93875.93;1697748;83;21257;-51
2022/09/12 00:42:39;;;;;;;3.60;3.30;;;;;;;13.08;94.65;93876.06;1689888;83;21062;-51
2022/09/12 00:45:11;;;;;;;7.95;2.85;;;;;;;13.06;94.35;93875.16;1707692;83;21003;-51
2022/09/12 00:47:38;;;;;;;14.05;4.53;;;;;;;13.04;94.43;93868.62;1693762;83;21041;-52
2022/09/12 00:50:09;;;;;;;6.25;3.02;;;;;;;13.00;94.54;93871.58;1706355;83;21049;-51
2022/09/12 00:52:44;;;;;;;3.50;3.20;;;;;;;12.99;94.83;93870.67;1699383;83;21323;-51
2022/09/12 00:55:15;;;;;;;5.30;3.30;;;;;;;12.93;94.84;93866.45;1709769;83;20999;-52
2022/09/12 00:57:59;;;;;;;3.95;3.35;;;;;;;12.92;95.06;93871.06;1708120;83;20990;-53
2022/09/12 01:00:26;;;;;;;8.00;3.47;;;;;;;12.90;95.27;93870.16;1701207;83;21451;-52
2022/09/12 01:03:07;;;;;;;5.10;3.72;;;;;;;12.90;95.39;93869.41;1702552;83;20971;-51
2022/09/12 01:05:36;;;;;;;6.37;3.80;;;;;;;12.91;95.29;93873.69;1689466;83;21047;-51
2022/09/12 01:08:03;;;;;;;5.33;4.10;;;;;;;12.91;95.42;93871.67;1694467;83;21526;-52
2022/09/12 01:10:33;;;;;;;4.05;3.22;;;;;;;12.92;95.80;93866.92;1693198;83;20997;-51
2022/09/12 01:13:02;;;;;;;5.95;3.42;;;;;;;12.95;95.56;93856.32;1702984;83;21001;-51
2022/09/12 01:15:29;;;;;;;8.40;3.58;;;;;;;12.94;95.42;93853.42;1706837;83;20982;-52
2022/09/12 01:18:17;;;;;;;5.78;3.47;;;;;;;12.89;95.28;93859.61;1699091;83;21259;-51
2022/09/12 01:21:08;;;;;;;3.85;3.55;;;;;;;12.88;95.64;93860.86;1695076;83;21017;-52
2022/09/12 01:23:49;;;;;;;4.15;3.58;;;;;;;12.91;95.64;93865.41;1702185;83;21014;-52
2022/09/12 01:26:52;;;;;;;3.75;3.45;;;;;;;12.90;96.15;93854.97;1673634;85;21033;-52
2022/09/12 01:29:47;;;;;;;7.10;3.80;;;;;;;13.00;96.52;93857.77;1703295;83;21171;-51
2022/09/12 01:32:37;;;;;;;7.25;3.10;;;;;;;13.08;96.13;93860.88;1686229;83;21175;-51
2022/09/12 01:35:22;;;;;;;4.28;3.75;;;;;;;13.10;95.93;93862.53;1646859;86;21463;-52
2022/09/12 01:38:10;;;;;;;4.47;3.35;;;;;;;13.14;96.36;93870.75;1638541;86;21058;-51
2022/09/12 01:40:49;;;;;;;5.47;4.00;;;;;;;13.19;96.34;93867.89;1641693;86;21111;-51
2022/09/12 01:43:36;;;;;;;8.00;4.00;;;;;;;13.25;96.11;93872.25;1703268;83;21023;-51
2022/09/12 01:46:14;;;;;;;5.72;3.47;;;;;;;13.30;95.67;93866.02;1703033;83;21439;-50
2022/09/12 01:49:03;;;;;;;4.47;3.52;;;;;;;13.33;95.70;93863.69;1692746;83;21124;-52
2022/09/12 01:51:41;;;;;;;4.45;3.33;;;;;;;13.35;95.60;93859.05;1698193;83;21101;-51
2022/09/12 01:54:13;;;;;;;5.42;3.15;;;;;;;13.41;95.44;93861.27;1688724;83;21014;-51
2022/09/12 01:56:40;;;;;;;4.60;3.10;;;;;;;13.36;94.70;93864.09;1700844;83;21012;-53
2022/09/12 01:59:27;;;;;;;5.33;2.98;;;;;;;13.37;95.08;93871.74;1701032;83;21167;-51
2022/09/12 02:02:08;;;;;;;8.45;3.40;;;;;;;13.36;94.40;93868.84;1695534;83;21442;-52
2022/09/12 02:04:47;;;;;;;6.08;2.95;;;;;;;13.32;94.55;93863.55;1699643;83;21007;-52
2022/09/12 02:07:26;;;;;;;3.55;3.25;;;;;;;13.26;94.10;93861.97;1666994;85;20971;-51
2022/09/12 02:10:04;;;;;;;3.55;2.72;;;;;;;13.23;94.22;93865.70;1703236;83;20959;-51
2022/09/12 02:12:43;;;;;;;3.42;2.90;;;;;;;13.22;94.00;93864.16;1706138;83;21334;-52
2022/09/12 02:15:10;;;;;;;6.40;3.30;;;;;;;13.21;93.99;93870.32;1671891;83;21022;-52
2022/09/12 02:17:41;;;;;;;4.72;3.37;;;;;;;13.15;93.90;93868.73;1698698;83;20971;-51
2022/09/12 02:20:25;;;;;;;3.50;3.20;;;;;;;13.07;94.42;93860.74;1686741;83;21125;-52
2022/09/12 02:22:52;;;;;;;3.95;3.52;;;;;;;13.06;94.82;93863.37;1705952;83;21089;-52
2022/09/12 02:25:19;;;;;;;5.42;3.50;;;;;;;13.00;94.90;93858.38;1703027;83;21208;-52
2022/09/12 02:27:54;;;;;;;5.22;3.52;;;;;;;13.00;95.69;93851.48;1702561;83;21027;-51
2022/09/12 02:30:20;;;;;;;3.37;3.08;;;;;;;13.01;95.81;93860.67;1701358;83;21078;-52
2022/09/12 02:32:59;;;;;;;4.37;3.12;;;;;;;12.98;95.62;93860.27;1704938;83;21065;-52
2022/09/12 02:35:54;;;;;;;3.00;2.70;;;;;;;12.97;95.79;93846.92;1696325;83;21120;-51
2022/09/12 02:38:29;;;;;;;3.72;2.40;;;;;;;12.97;95.99;93842.18;1709157;83;21343;-51
2022/09/12 02:40:56;;;;;;;2.77;2.20;;;;;;;12.89;95.20;93838.91;1669407;85;21472;-51
2022/09/12 02:43:22;;;;;;;2.60;2.40;;;;;;;12.82;95.07;93842.06;1647739;86;21003;-52
2022/09/12 02:45:49;;;;;;;2.67;2.40;;;;;;;12.74;94.75;93843.73;1628264;86;21129;-53
2022/09/12 02:48:29;;;;;;;2.70;2.50;;;;;;;12.67;94.79;93835.84;1635775;86;20991;-51
2022/09/12 02:50:56;;;;;;;2.72;2.52;;;;;;;12.63;94.95;93829.78;1710994;83;21438;-52
2022/09/12 02:53:24;;;;;;;2.72;2.52;;;;;;;12.63;95.23;93838.83;1667339;83;20962;-52
2022/09/12 02:55:51;;;;;;;3.65;2.37;;;;;;;12.65;95.24;93850.75;1631788;86;21211;-51
2022/09/12 02:58:22;;;;;;;5.53;3.62;;;;;;;12.68;95.10;93868.48;1644286;86;21089;-52
2022/09/12 03:01:46;;;;;;;3.20;2.72;;;;;;;12.70;95.25;93868.02;1687363;83;21215;-51
2022/09/12 03:04:28;;;;;;;4.60;2.80;;;;;;;12.70;95.32;93858.36;1693039;83;21249;-52
2022/09/12 03:07:27;;;;;;;3.45;2.90;;;;;;;12.67;95.99;93841.36;1708187;83;20983;-51
2022/09/12 03:10:16;;;;;;;3.00;2.72;;;;;;;12.63;95.66;93825.03;1701060;83;20974;-52
2022/09/12 03:13:17;;;;;;;2.87;2.67;;;;;;;12.55;96.07;93841.84;1706170;83;21026;-52
2022/09/12 03:16:10;;;;;;;3.20;2.95;;;;;;;12.56;96.41;93835.72;1701188;83;20967;-51
2022/09/12 03:19:05;;;;;;;3.90;2.85;;;;;;;12.56;96.29;93834.34;1673788;83;21433;-51
2022/09/12 03:21:46;;;;;;;2.72;2.52;;;;;;;12.54;96.42;93847.86;1695282;83;20966;-52
2022/09/12 03:24:32;;;;;;;3.30;2.62;;;;;;;12.57;96.36;93860.05;1704284;83;21058;-52
2022/09/12 03:27:05;;;;;;;2.80;2.60;;;;;;;12.58;96.28;93853.92;1691881;83;21541;-51
2022/09/12 03:29:31;;;;;;;2.80;2.55;;;;;;;12.65;96.43;93846.61;1652388;85;22268;-51
2022/09/12 03:31:58;;;;;;;3.08;2.70;;;;;;;12.69;95.70;93849.95;1641324;86;21294;-52
2022/09/12 03:34:26;;;;;;;3.62;2.75;;;;;;;12.68;95.56;93859.47;1625933;86;20970;-52
2022/09/12 03:36:56;;;;;;;3.30;2.50;;;;;;;12.69;95.32;93850.69;1628966;86;21018;-51
2022/09/12 03:39:23;;;;;;;3.00;2.75;;;;;;;12.74;95.26;93847.23;1627788;87;21056;-52
2022/09/12 03:41:50;;;;;;;7.50;2.75;;;;;;;12.80;95.08;93863.88;1671056;84;20984;-52
2022/09/12 03:44:17;;;;;;;3.60;2.58;;;;;;;12.80;94.48;93855.59;1697031;83;21340;-51
2022/09/12 03:46:44;;;;;;;3.42;2.80;;;;;;;12.77;94.44;93853.80;1676739;83;20963;-51
2022/09/12 03:49:11;;;;;;;2.85;2.65;;;;;;;12.78;94.42;93851.17;1696853;83;21007;-53
2022/09/12 03:51:39;;;;;;;5.22;2.75;;;;;;;12.80;94.36;93870.77;1702463;83;21218;-52
2022/09/12 03:54:06;;;;;;;6.85;2.87;;;;;;;12.81;94.40;93861.25;1697261;83;20971;-51
2022/09/12 03:56:33;;;;;;;6.90;2.87;;;;;;;12.81;94.15;93857.11;1703375;83;21271;-52
2022/09/12 03:59:00;;;;;;;7.40;3.17;;;;;;;12.85;94.48;93867.31;1702415;83;21693;-51
2022/09/12 04:01:27;;;;;;;3.50;3.17;;;;;;;12.84;93.90;93858.30;1698872;83;20995;-51
2022/09/12 04:03:54;;;;;;;3.55;3.25;;;;;;;12.85;94.39;93865.94;1703223;83;21120;-51
2022/09/12 04:06:21;;;;;;;6.60;4.80;;;;;;;12.86;93.98;93861.96;1708730;83;21011;-51
2022/09/12 04:08:51;;;;;;;6.85;4.00;;;;;;;12.84;93.74;93864.42;1705033;83;21327;-51
2022/09/12 04:11:20;;;;;;;4.60;4.20;;;;;;;12.81;94.02;93872.29;1693982;83;21022;-51
2022/09/12 04:13:47;;;;;;;10.70;3.72;;;;;;;12.83;94.52;93876.70;1682218;83;21070;-51
2022/09/12 04:16:14;;;;;;;4.33;3.40;;;;;;;12.83;94.29;93878.09;1638564;85;21144;-51
2022/09/12 04:18:41;;;;;;;3.47;3.17;;;;;;;12.83;93.91;93884.98;1654481;84;21557;-51
2022/09/12 04:21:15;;;;;;;5.10;3.80;;;;;;;12.81;94.00;93875.83;1672053;84;21217;-52
2022/09/12 04:23:41;;;;;;;;;;;;;;;12.81;94.10;93864.01;1675749;84;21107;-51
2022/09/12 04:26:08;;;;;;;4.90;3.47;;;;;;;12.84;94.10;93860.28;1664427;84;20470;-50
2022/09/12 04:28:36;;;;;;;5.05;3.52;;;;;;;12.78;93.41;93853.94;1640241;85;20994;-52
2022/09/12 04:31:11;;;;;;;3.60;3.25;;;;;;;12.76;93.44;93861.34;1628004;87;21029;-50
2022/09/12 04:33:37;;;;;;;6.45;3.17;;;;;;;12.81;92.19;93855.13;1618501;87;21446;-51
2022/09/12 04:36:11;;;;;;;3.60;3.30;;;;;;;12.83;91.38;93865.66;1615922;87;21042;-51
2022/09/12 04:38:39;;;;;;;4.05;3.35;;;;;;;12.76;91.52;93864.09;1661778;84;21046;-51
2022/09/12 04:41:20;;;;;;;7.40;3.83;;;;;;;12.72;91.99;93869.67;1678107;84;21034;-51
2022/09/12 04:43:52;;;;;;;4.50;3.58;;;;;;;12.72;92.14;93880.08;1635737;86;21018;-53
2022/09/12 04:46:19;;;;;;;3.67;3.37;;;;;;;12.66;92.18;93874.34;1650907;84;21259;-53
2022/09/12 04:48:46;;;;;;;3.58;3.27;;;;;;;12.66;92.39;93886.76;1670385;83;21108;-53
2022/09/12 04:51:17;;;;;;;3.67;3.37;;;;;;;12.66;92.24;93884.00;1637062;86;20962;-53
2022/09/12 04:53:50;;;;;;;7.40;4.08;;;;;;;12.68;92.50;93893.96;1671538;85;21017;-54
2022/09/12 04:56:18;;;;;;;4.37;3.42;;;;;;;12.68;91.12;93888.44;1663691;84;20975;-52
2022/09/12 04:58:45;;;;;;;6.15;3.83;;;;;;;12.59;89.85;93884.41;1675948;84;21918;-57
2022/09/12 05:01:16;;;;;;;4.72;3.60;;;;;;;12.53;89.93;93888.47;1663376;84;21079;-57
2022/09/12 05:03:43;;;;;;;4.58;3.55;;;;;;;12.49;89.95;93887.14;1675411;84;21434;-52
2022/09/12 05:06:13;;;;;;;5.45;3.52;;;;;;;12.43;89.29;93891.83;1667861;83;21158;-55
2022/09/12 05:08:41;;;;;;;3.80;3.45;;;;;;;12.36;88.29;93893.61;1609469;87;21033;-53
2022/09/12 05:11:11;;;;;;;7.78;4.22;;;;;;;12.22;87.43;93889.48;1611325;86;21304;-54
2022/09/12 05:13:38;;;;;;;6.08;4.28;;;;;;;12.11;87.30;93893.45;1587315;87;21513;-53
2022/09/12 05:16:06;;;;;;;8.23;4.55;;;;;;;12.01;87.12;93895.56;1635201;85;21608;-54
2022/09/12 05:18:34;;;;;;;6.20;4.50;;;;;;;11.98;87.18;93905.39;1635938;85;21048;-53
2022/09/12 05:21:03;;;;;;;4.72;4.12;;;;;;;11.97;87.71;93906.62;1643841;85;21157;-53
2022/09/12 05:23:30;;;;;;;6.37;4.62;;;;;;;12.02;88.05;93902.59;1660781;85;21252;-53
2022/09/12 05:25:59;;;;;;;5.53;4.62;;;;;;;12.12;88.21;93909.50;1647428;86;20980;-56
2022/09/12 05:28:29;;;;;;;8.28;5.40;;;;;;;12.24;88.45;93904.31;1616916;86;21032;-56
2022/09/12 05:31:05;;;;;;;9.13;5.83;;;;;;;12.32;88.30;93904.09;1635254;84;21067;-55
2022/09/12 05:33:35;;;;;;;8.33;7.12;;;;;;;12.41;88.77;93903.96;1608744;87;21177;-59
2022/09/12 05:36:04;;;;;;;7.47;6.60;;;;;;;12.49;89.42;93908.46;1670692;84;21351;-55
2022/09/12 05:38:35;;;;;;;8.93;5.33;;;;;;;12.55;89.88;93903.17;1655859;84;21046;-55
2022/09/12 05:41:08;;;;;;;8.00;5.85;;;;;;;12.63;88.96;93907.03;1668394;84;21522;-56
2022/09/12 05:43:36;;;;;;;6.20;5.15;;;;;;;12.64;88.19;93904.41;1679949;82;21486;-60
2022/09/12 05:46:07;;;;;;;7.17;4.67;;;;;;;12.71;87.43;93906.16;1661908;84;21041;-56
2022/09/12 05:48:37;;;;;;;9.85;4.40;;;;;;;12.76;87.48;93910.24;1632916;85;21110;-55
2022/09/12 05:51:08;;;;;;;4.75;4.10;;;;;;;12.77;87.25;93911.16;1596209;87;21098;-58
2022/09/12 05:53:37;;;;;;;5.75;4.85;;;;;;;12.76;86.95;93918.52;1668460;84;21079;-60
2022/09/12 05:56:09;;;;;;;5.78;5.17;;;;;;;12.70;86.15;93917.06;1660095;83;21117;-59
2022/09/12 05:58:41;;;;;;;8.40;5.60;;;;;;;12.67;84.22;93916.64;1669769;83;21009;-61
2022/09/12 06:01:11;;;;;;;6.40;5.67;;;;;;;12.67;83.72;93917.25;1658516;84;21502;-59
2022/09/12 06:03:48;;;;;;;7.35;4.62;;;;;;;12.62;84.19;93922.08;1667538;84;21079;-58
2022/09/12 06:06:16;;;;;;;8.55;5.87;;;;;;;12.64;84.52;93925.11;1658174;84;21457;-55
2022/09/12 06:08:45;;;;;;;6.05;5.08;;;;;;;12.65;85.50;93923.88;1621520;86;21098;-54
2022/09/12 06:11:15;;;;;;;7.90;5.30;;;;;;;12.67;85.85;93927.69;1647302;85;21062;-56
2022/09/12 06:13:44;;;;;;;6.47;5.17;;;;;;;12.64;86.00;93923.73;1648572;85;21059;-55
2022/09/12 06:16:19;;;;;;;11.55;8.28;;;;;;;12.59;86.47;93924.42;1638149;85;21161;-54
2022/09/12 06:18:48;;;;;;;29.75;16.20;;;;;;;12.62;86.27;93924.84;1635870;86;21122;-55
2022/09/12 06:21:15;;;;;;;16.87;9.33;;;;;;;12.61;85.33;93921.33;1629068;85;21066;-53
2022/09/12 06:23:42;;;;;;;22.17;10.75;;;;;;;12.66;84.07;93925.39;1652378;84;21515;-54
2022/09/12 06:26:09;;;;;;;10.70;6.97;;;;;;;12.72;83.04;93922.11;1663475;83;22295;-55
2022/09/12 06:28:39;;;;;;;9.40;6.65;;;;;;;12.76;81.87;93917.14;1655097;83;21085;-54
2022/09/12 06:31:14;;;;;;;14.87;7.10;;;;;;;12.73;80.72;93919.48;1675182;83;21081;-54
2022/09/12 06:33:45;;;;;;;8.63;6.83;;;;;;;12.71;80.19;93910.93;1654335;83;21061;-56
2022/09/12 06:36:16;;;;;;;11.73;5.85;;;;;;;12.72;79.81;93911.07;1683873;83;21081;-55
2022/09/12 06:38:45;;;;;;;12.07;7.55;;;;;;;12.68;79.74;93918.80;1663997;83;21238;-57
2022/09/12 06:41:12;;;;;;;11.03;6.95;;;;;;;12.65;79.86;93920.50;1653744;84;20997;-58
2022/09/12 06:43:40;;;;;;;7.60;6.25;;;;;;;12.69;81.11;93923.08;1660751;84;21932;-57
2022/09/12 06:48:59;;;;;;;9.10;6.60;;;;;;;12.69;83.28;93922.44;1669773;83;21088;-63
2022/09/12 06:51:27;;;;;;;6.92;4.72;;;;;;;12.70;84.40;93930.86;1651938;84;21131;-64
2022/09/12 06:53:55;;;;;;;5.83;4.47;;;;;;;12.74;85.13;93928.65;1671683;83;22377;-59
2022/09/12 06:56:25;;;;;;;5.25;4.20;;;;;;;12.72;85.40;93931.77;1649124;84;21033;-58
2022/09/12 06:58:53;;;;;;;6.60;4.58;;;;;;;12.72;85.65;93926.25;1652476;84;21049;-57
2022/09/12 07:01:22;;;;;;;8.28;4.78;;;;;;;12.69;85.91;93928.59;1618611;85;21046;-59
2022/09/12 07:03:51;;;;;;;6.58;5.67;;;;;;;12.66;85.99;93935.82;1636312;84;21878;-60
2022/09/12 07:06:20;;;;;;;6.28;4.33;;;;;;;12.69;86.09;93939.63;1610655;86;21179;-64
2022/09/12 07:08:47;;;;;;;5.67;3.95;;;;;;;12.74;86.19;93938.95;1671061;84;21104;-66
2022/09/12 07:11:24;;;;;;;4.05;3.47;;;;;;;12.80;85.29;93941.93;1674526;83;21124;-61
2022/09/12 07:13:55;;;;;;;4.37;3.85;;;;;;;12.90;84.98;93936.41;1668390;85;21599;-61
2022/09/12 07:16:22;;;;;;;5.42;3.90;;;;;;;12.96;84.66;93937.30;1666380;83;21121;-56
2022/09/12 07:18:52;;;;;;;6.55;3.70;;;;;;;13.00;84.10;93936.46;1662533;83;21015;-61
2022/09/12 07:21:19;;;;;;;8.25;4.87;;;;;;;13.05;83.47;93941.29;1653000;85;22339;-61
2022/09/12 07:23:46;;;;;;;8.95;5.85;;;;;;;13.10;83.31;93935.07;1671937;84;21102;-62
2022/09/12 07:26:13;;;;;;;11.93;6.15;;;;;;;13.20;82.09;93941.22;1642053;85;21117;-58
2022/09/12 07:28:40;;;;;;;12.03;6.72;;;;;;;13.32;81.06;93940.13;1640212;84;21218;-61
2022/09/12 07:31:13;;;;;;;7.83;5.80;;;;;;;13.45;80.32;93944.69;1674404;83;21096;-60
2022/09/12 07:33:40;;;;;;;9.98;6.30;;;;;;;13.58;80.82;93945.08;1659173;84;21044;-60
2022/09/12 07:36:13;;;;;;;9.98;4.78;;;;;;;13.72;80.98;93939.48;1634483;86;21526;-59
2022/09/12 07:38:40;;;;;;;6.35;5.20;;;;;;;13.93;80.67;93942.94;1634109;87;21632;-62
2022/09/12 07:41:14;;;;;;;6.40;4.72;;;;;;;14.08;80.71;93939.45;1630235;86;21281;-63
2022/09/12 07:43:40;;;;;;;7.33;4.95;;;;;;;14.15;80.04;93945.95;1628243;86;21204;-59
2022/09/12 07:46:08;;;;;;;5.50;4.10;;;;;;;14.17;78.59;93949.01;1633226;86;20989;-61
2022/09/12 07:48:38;;;;;;;4.75;3.60;;;;;;;14.19;78.51;93951.41;1625408;85;21104;-62
2022/09/12 07:51:07;;;;;;;4.72;3.55;;;;;;;14.29;77.61;93950.61;1687853;84;20996;-62
2022/09/12 07:53:36;;;;;;;7.67;4.45;;;;;;;14.46;77.80;93949.52;1637136;86;21700;-62
2022/09/12 07:56:04;;;;;;;4.58;4.10;;;;;;;14.66;77.19;93945.27;1666769;84;21062;-61
2022/09/12 07:58:32;;;;;;;5.00;3.35;;;;;;;14.90;77.05;93949.22;1672501;83;21553;-64
2022/09/12 08:01:12;;;;;;;5.33;3.20;;;;;;;15.10;75.34;93940.78;1676125;84;21473;-58
2022/09/12 08:03:42;;;;;;;5.85;3.92;;;;;;;15.25;73.58;93946.14;1683085;84;21270;-56
2022/09/12 08:06:12;;;;;;;5.83;3.55;;;;;;;15.37;71.95;93944.34;1658579;83;22169;-65
2022/09/12 08:08:39;;;;;;;3.67;2.60;;;;;;;15.45;69.88;93946.02;1671597;83;21525;-57
2022/09/12 08:11:08;;;;;;;5.53;3.40;;;;;;;15.48;65.96;93931.92;1680619;83;21141;-67
2022/09/12 08:13:37;;;;;;;6.33;3.67;;;;;;;15.44;66.87;93932.80;1686073;83;21052;-63
2022/09/12 08:16:06;;;;;;;4.85;4.20;;;;;;;15.42;66.71;93939.47;1652738;84;21118;-62
2022/09/12 08:18:35;;;;;;;3.50;3.00;;;;;;;15.33;64.53;93946.59;1679935;83;22268;-60
2022/09/12 08:21:05;;;;;;;22.85;11.93;;;;;;;15.31;63.01;93943.56;1661000;84;21147;-61
2022/09/12 08:23:32;;;;;;;12.18;5.30;;;;;;;15.24;63.63;93935.70;1650466;85;21314;-59
2022/09/12 08:26:02;;;;;;;8.43;5.12;;;;;;;15.25;64.09;93948.91;1646636;85;21088;-62
2022/09/12 08:28:31;;;;;;;4.30;3.67;;;;;;;15.28;63.90;93943.14;1608903;87;21066;-57
2022/09/12 08:31:06;;;;;;;6.53;3.95;;;;;;;15.27;62.97;93943.02;1649305;85;21181;-62
2022/09/12 08:33:34;;;;;;;7.12;4.78;;;;;;;15.19;62.33;93935.02;1656103;84;21234;-58
2022/09/12 08:36:07;;;;;;;5.30;2.50;;;;;;;15.13;62.79;93942.55;1654899;84;21611;-60
2022/09/12 08:38:35;;;;;;;7.17;4.78;;;;;;;15.03;61.94;93941.22;1664725;84;21682;-61
2022/09/12 08:41:33;;;;;;;3.67;3.00;;;;;;;14.89;62.50;93944.94;1673756;82;22399;-56
2022/09/12 08:44:39;;;;;;;10.58;7.45;;;;;;;14.80;61.78;93940.95;1669316;82;21166;-60
2022/09/12 08:47:18;;;;;;;7.62;2.77;;;;;;;14.76;62.99;93932.13;1670391;84;21013;-60
2022/09/12 08:50:06;;;;;;;7.67;5.62;;;;;;;14.85;63.42;93931.92;1658203;84;21080;-58
2022/09/12 08:53:01;;;;;;;6.78;5.05;;;;;;;14.85;63.05;93933.30;1637859;84;21623;-58
2022/09/12 08:55:58;;;;;;;7.67;3.27;;;;;;;14.88;63.74;93930.19;1651852;84;21120;-59
2022/09/12 08:58:27;;;;;;;3.80;2.77;;;;;;;14.90;62.77;93922.14;1678830;84;21427;-59
2022/09/12 09:01:11;;;;;;;3.77;3.17;;;;;;;14.88;62.16;93937.11;1621668;87;21075;-61
2022/09/12 09:04:16;;;;;;;2.75;2.55;;;;;;;14.85;62.52;93924.25;1650411;84;21102;-60
2022/09/12 09:06:48;;;;;;;3.33;2.90;;;;;;;14.89;62.24;93937.24;1669279;83;21092;-57
2022/09/12 09:09:35;;;;;;;9.00;4.53;;;;;;;14.98;61.51;93939.83;1674195;84;21062;-58
2022/09/12 09:12:08;;;;;;;5.05;4.03;;;;;;;15.05;61.34;93944.28;1657700;83;21557;-58
2022/09/12 09:15:00;;;;;;;5.03;4.50;;;;;;;15.14;61.57;93942.69;1683920;83;21764;-58
2022/09/12 09:17:44;;;;;;;9.58;5.65;;;;;;;15.24;60.67;93941.85;1676008;83;21062;-58
2022/09/12 09:20:38;;;;;;;3.25;2.50;;;;;;;15.28;59.70;93932.06;1648155;84;21091;-58
2022/09/12 09:23:29;;;;;;;5.78;3.80;;;;;;;15.36;59.42;93928.97;1673910;84;21015;-58
2022/09/12 09:26:26;;;;;;;6.92;2.67;;;;;;;15.41;59.90;93929.64;1646916;85;21345;-59
2022/09/12 09:29:00;;;;;;;10.25;2.58;;;;;;;15.54;60.25;93931.95;1594280;88;21070;-57
2022/09/12 09:31:32;;;;;;;5.15;2.85;;;;;;;15.66;58.78;93932.88;1604693;87;21069;-57
2022/09/12 09:33:59;;;;;;;3.58;2.05;;;;;;;15.66;59.00;93928.72;1640483;86;21042;-56
2022/09/12 09:36:53;;;;;;;4.95;3.10;;;;;;;15.70;58.11;93922.30;1617237;87;21026;-60
2022/09/12 09:40:02;;;;;;;2.95;2.60;;;;;;;15.74;58.21;93915.13;1605063;87;22031;-59
2022/09/12 09:42:54;;;;;;;6.62;5.92;;;;;;;15.84;58.13;93924.11;1668901;84;21318;-56
2022/09/12 09:45:23;;;;;;;6.70;2.10;;;;;;;15.96;58.72;93927.66;1681548;82;21405;-57
2022/09/12 09:48:08;;;;;;;155.97;16.45;;;;;;;16.05;57.59;93939.91;1685018;83;21053;-59
2022/09/12 09:50:36;;;;;;;9.60;3.08;;;;;;;16.10;58.17;93941.95;1675794;84;21120;-57
2022/09/12 09:53:03;;;;;;;5.85;3.77;;;;;;;16.14;57.21;93937.67;1665838;84;21225;-59
2022/09/12 09:55:35;;;;;;;7.08;3.60;;;;;;;16.13;57.23;93936.13;1666911;83;21114;-59
2022/09/12 09:58:02;;;;;;;4.47;3.67;;;;;;;16.10;57.17;93945.47;1661116;84;21040;-58
2022/09/12 10:00:34;;;;;;;3.40;3.10;;;;;;;16.10;57.78;93937.14;1619564;85;21459;-58
2022/09/12 10:03:25;;;;;;;3.95;2.10;;;;;;;16.11;58.13;93946.98;1606222;86;22392;-59
2022/09/12 10:06:24;;;;;;;14.58;4.47;;;;;;;16.07;58.10;93950.64;1674151;83;21274;-57
2022/09/12 10:08:51;;;;;;;4.30;2.80;;;;;;;15.93;57.75;93951.61;1680908;84;21078;-58
2022/09/12 10:11:21;;;;;;;3.40;2.87;;;;;;;15.77;57.63;93956.47;1673527;85;21245;-58
2022/09/12 10:13:53;;;;;;;2.70;2.50;;;;;;;15.62;57.53;93948.23;1630001;86;21241;-60
2022/09/12 10:16:34;;;;;;;6.87;3.10;;;;;;;15.53;57.77;93958.91;1644301;86;21194;-61
2022/09/12 10:19:02;;;;;;;5.08;3.25;;;;;;;15.44;58.18;93965.29;1610672;86;21931;-58
2022/09/12 10:21:49;;;;;;;4.87;2.60;;;;;;;15.33;58.37;93966.00;1608243;85;21069;-56
2022/09/12 10:24:24;;;;;;;4.00;3.70;;;;;;;15.25;58.05;93968.31;1626853;85;21438;-59
2022/09/12 10:27:22;;;;;;;4.12;2.65;;;;;;;15.10;58.33;93978.80;1631954;87;21089;-58
2022/09/12 10:30:03;;;;;;;8.68;3.80;;;;;;;15.00;58.63;93981.64;1640135;85;21083;-60
2022/09/12 10:32:37;;;;;;;6.17;3.17;;;;;;;14.90;59.11;93988.00;1641408;85;21287;-58
2022/09/12 10:35:25;;;;;;;5.65;3.42;;;;;;;14.85;59.73;93985.92;1664978;84;21260;-58
2022/09/12 10:38:12;;;;;;;5.15;2.95;;;;;;;14.84;60.31;93989.95;1647958;85;21041;-58
2022/09/12 10:40:42;;;;;;;5.00;2.80;;;;;;;14.87;59.94;93990.98;1656905;85;21581;-62
2022/09/12 10:43:36;;;;;;;4.70;2.90;;;;;;;14.88;59.74;93991.11;1666809;84;21130;-60
2022/09/12 10:46:20;;;;;;;6.03;2.75;;;;;;;14.88;59.49;94002.97;1664742;84;21430;-63
2022/09/12 10:48:48;;;;;;;2.85;2.30;;;;;;;14.92;59.53;93999.95;1630375;85;21041;-62
2022/09/12 10:51:27;;;;;;;6.47;3.42;;;;;;;14.98;59.05;93998.74;1599343;86;21056;-60
2022/09/12 10:54:00;;;;;;;8.20;2.60;;;;;;;15.05;59.53;93994.77;1633464;85;20998;-64
2022/09/12 10:56:32;;;;;;;3.47;2.35;;;;;;;15.17;59.94;93997.75;1613418;86;21574;-61
2022/09/12 10:59:16;;;;;;;6.62;2.05;;;;;;;15.27;59.72;93994.28;1604094;87;21571;-62
2022/09/12 11:01:52;;;;;;;3.92;2.50;;;;;;;15.36;58.98;94002.41;1651774;84;21036;-57
2022/09/12 11:04:42;;;;;;;2.47;2.08;;;;;;;15.34;57.58;94000.77;1608496;86;21069;-61
2022/09/12 11:07:23;;;;;;;4.65;2.98;;;;;;;15.27;58.16;94010.91;1628814;85;21359;-62
2022/09/12 11:10:14;;;;;;;4.90;2.90;;;;;;;15.24;58.69;94017.45;1680973;83;21144;-61
2022/09/12 11:12:56;;;;;;;5.35;3.00;;;;;;;15.16;58.22;94014.98;1667183;85;21286;-66
2022/09/12 11:15:44;;;;;;;3.15;2.92;;;;;;;15.13;59.07;94020.75;1673074;83;20890;-59
2022/09/12 11:18:39;;;;;;;24.52;5.00;;;;;;;15.12;58.29;94026.16;1649549;85;21070;-59
2022/09/12 11:21:44;;;;;;;3.02;2.35;;;;;;;15.13;58.43;94030.44;1624229;87;21054;-60
2022/09/12 11:24:48;;;;;;;8.70;2.50;;;;;;;15.12;58.59;94038.63;1624782;87;21571;-57
2022/09/12 11:27:36;;;;;;;3.30;2.87;;;;;;;15.06;58.08;94040.60;1630015;87;22545;-58
2022/09/12 11:30:12;;;;;;;11.05;3.85;;;;;;;14.97;58.71;94047.09;1636266;87;21038;-57
2022/09/12 11:33:05;;;;;;;5.00;2.22;;;;;;;14.95;58.70;94048.20;1662795;85;21073;-58
2022/09/12 11:35:41;;;;;;;;;;;;;;;14.93;58.26;94045.17;1628360;87;21087;-61
2022/09/12 11:38:48;;;;;;;3.10;2.80;;;;;;;14.93;58.89;94038.25;1599367;87;20159;-58
2022/09/12 11:41:24;;;;;;;10.93;3.47;;;;;;;14.95;59.35;94055.13;1656311;84;21161;-59
2022/09/12 11:44:08;;;;;;;4.75;3.12;;;;;;;14.98;57.90;94049.24;1666517;84;21108;-55
2022/09/12 11:46:38;;;;;;;4.40;3.20;;;;;;;14.93;57.87;94047.94;1674220;84;21027;-58
2022/09/12 11:49:16;;;;;;;3.40;3.10;;;;;;;14.94;58.63;94044.53;1663632;84;21570;-54
2022/09/12 11:52:13;;;;;;;6.30;2.80;;;;;;;14.96;58.81;94046.95;1679883;83;21070;-60
2022/09/12 11:55:13;;;;;;;2.58;2.33;;;;;;;15.01;59.03;94050.38;1693361;83;21204;-62
2022/09/12 11:57:52;;;;;;;2.22;2.10;;;;;;;15.04;57.78;94051.42;1690257;81;21154;-60
2022/09/12 12:00:27;;;;;;;9.20;4.75;;;;;;;15.01;58.52;94056.56;1685450;83;21095;-59
2022/09/12 12:03:21;;;;;;;7.90;3.42;;;;;;;15.01;59.07;94051.02;1670056;84;21061;-57
2022/09/12 12:06:03;;;;;;;4.70;2.05;;;;;;;15.10;59.72;94056.37;1667229;84;21001;-59
2022/09/12 12:08:31;;;;;;;2.92;1.65;;;;;;;15.11;58.49;94056.50;1633764;84;21537;-57
2022/09/12 12:11:02;;;;;;;6.20;3.50;;;;;;;15.08;58.24;94056.10;1649474;84;21103;-62
2022/09/12 12:13:42;;;;;;;6.70;2.42;;;;;;;15.05;58.96;94057.86;1664743;84;21129;-57